createdAt,value
2022-12-03T00:00:22.739Z,10.65
2022-12-03T00:02:52.174Z,10.60
2022-12-03T00:05:21.506Z,11.13
2022-12-03T00:07:50.927Z,9.50
2022-12-03T00:10:20.248Z,12.20
2022-12-03T00:12:49.586Z,10.80
2022-12-03T00:15:18.883Z,12.23
2022-12-03T00:17:48.165Z,10.02
2022-12-03T00:20:22.209Z,9.73
2022-12-03T00:22:51.903Z,11.35
2022-12-03T00:25:21.266Z,12.00
2022-12-03T00:27:50.706Z,11.50
2022-12-03T00:30:20.069Z,11.82
2022-12-03T00:32:49.327Z,11.02
2022-12-03T00:35:18.686Z,11.40
2022-12-03T00:37:48.011Z,12.02
2022-12-03T00:40:17.350Z,11.68
2022-12-03T00:42:46.673Z,11.70
2022-12-03T00:45:15.924Z,10.90
2022-12-03T00:47:45.168Z,12.30
2022-12-03T00:50:14.706Z,14.15
2022-12-03T00:52:43.979Z,12.40
2022-12-03T00:55:13.439Z,13.05
2022-12-03T00:57:42.751Z,13.43
2022-12-03T01:00:12.633Z,13.73
2022-12-03T01:02:41.904Z,12.80
2022-12-03T01:05:11.522Z,13.23
2022-12-03T01:07:40.947Z,12.13
2022-12-03T01:10:10.490Z,12.35
2022-12-03T01:12:39.772Z,13.02
2022-12-03T01:15:09.665Z,11.05
2022-12-03T01:17:39.432Z,13.57
2022-12-03T01:20:09.686Z,13.40
2022-12-03T01:22:39.073Z,14.48
2022-12-03T01:25:08.609Z,13.27
2022-12-03T01:27:37.878Z,13.23
2022-12-03T01:30:07.999Z,12.43
2022-12-03T01:32:34.686Z,12.38
2022-12-03T01:35:03.960Z,12.77
2022-12-03T01:37:33.257Z,12.85
2022-12-03T01:40:02.543Z,11.45
2022-12-03T01:42:32.920Z,12.05
2022-12-03T01:45:03.178Z,14.02
2022-12-03T01:47:39.651Z,13.07
2022-12-03T01:50:10.936Z,13.05
2022-12-03T01:52:41.364Z,13.60
2022-12-03T01:55:15.760Z,13.15
2022-12-03T01:57:46.426Z,13.38
2022-12-03T02:00:16.584Z,13.18
2022-12-03T02:02:46.324Z,12.88
2022-12-03T02:05:29.973Z,15.32
2022-12-03T02:07:59.596Z,13.23
2022-12-03T02:10:30.980Z,13.63
2022-12-03T02:13:10.929Z,15.75
2022-12-03T02:15:43.355Z,14.70
2022-12-03T02:20:49.458Z,13.25
2022-12-03T02:23:32.711Z,13.13
2022-12-03T02:26:02.040Z,12.85
2022-12-03T02:28:31.348Z,13.20
2022-12-03T02:31:00.652Z,13.52
2022-12-03T02:33:29.945Z,13.27
2022-12-03T02:36:03.530Z,14.55
2022-12-03T02:38:35.183Z,12.68
2022-12-03T02:41:09.947Z,13.07
2022-12-03T02:43:37.682Z,14.57
2022-12-03T02:46:07.599Z,15.23
2022-12-03T02:48:41.028Z,11.88
2022-12-03T02:51:11.872Z,13.07
2022-12-03T02:53:45.980Z,12.43
2022-12-03T02:56:17.693Z,13.48
2022-12-03T02:58:47.989Z,15.10
2022-12-03T03:01:18.199Z,12.65
2022-12-03T03:03:48.282Z,13.73
2022-12-03T03:06:18.039Z,12.88
2022-12-03T03:08:47.667Z,12.88
2022-12-03T03:11:16.958Z,13.43
2022-12-03T03:13:46.365Z,12.85
2022-12-03T03:16:15.709Z,11.98
2022-12-03T03:18:45.016Z,13.02
2022-12-03T03:21:15.443Z,15.35
2022-12-03T03:23:44.804Z,15.77
2022-12-03T03:26:16.307Z,13.93
2022-12-03T03:28:47.547Z,12.93
2022-12-03T03:31:18.673Z,13.05
2022-12-03T03:33:50.044Z,15.00
2022-12-03T03:36:19.584Z,12.50
2022-12-03T03:38:49.287Z,13.27
2022-12-03T03:41:19.189Z,15.20
2022-12-03T03:43:48.924Z,13.55
2022-12-03T03:46:19.510Z,14.55
2022-12-03T03:48:49.672Z,14.13
2022-12-03T03:51:19.985Z,12.15
2022-12-03T03:53:51.056Z,14.25
2022-12-03T03:56:21.460Z,13.13
2022-12-03T03:58:50.816Z,14.57
2022-12-03T04:01:20.887Z,15.07
2022-12-03T04:03:50.307Z,14.20
2022-12-03T04:06:19.659Z,14.27
2022-12-03T04:08:48.932Z,15.10
2022-12-03T04:11:30.656Z,15.07
2022-12-03T04:14:00.022Z,14.93
2022-12-03T04:16:29.303Z,15.27
2022-12-03T04:18:58.582Z,12.95
2022-12-03T04:21:40.368Z,15.75
2022-12-03T04:24:10.521Z,13.45
2022-12-03T04:26:52.441Z,13.98
2022-12-03T04:29:22.118Z,13.95
2022-12-03T04:32:03.824Z,16.85
2022-12-03T04:34:45.719Z,13.90
2022-12-03T04:37:15.032Z,14.07
2022-12-03T04:39:44.501Z,14.55
2022-12-03T04:42:13.769Z,13.98
2022-12-03T04:44:43.080Z,16.23
2022-12-03T04:47:14.535Z,15.70
2022-12-03T04:49:45.062Z,16.27
2022-12-03T04:52:14.996Z,15.52
2022-12-03T04:54:44.316Z,14.43
2022-12-03T04:57:14.036Z,16.33
2022-12-03T04:59:43.852Z,17.90
2022-12-03T05:02:13.237Z,18.27
2022-12-03T05:04:42.581Z,16.00
2022-12-03T05:07:12.857Z,15.88
2022-12-03T05:09:42.107Z,15.80
2022-12-03T05:12:11.466Z,15.85
2022-12-03T05:14:40.771Z,14.38
2022-12-03T05:17:10.089Z,15.75
2022-12-03T05:19:51.841Z,14.25
2022-12-03T05:22:21.079Z,16.83
2022-12-03T05:24:50.523Z,17.02
2022-12-03T05:27:23.948Z,14.52
2022-12-03T05:29:53.775Z,14.98
2022-12-03T05:32:23.302Z,14.02
2022-12-03T05:34:53.006Z,14.90
2022-12-03T05:37:22.652Z,15.38
2022-12-03T05:39:51.928Z,15.70
2022-12-03T05:42:33.682Z,15.77
2022-12-03T05:45:02.934Z,18.10
2022-12-03T05:47:32.209Z,15.15
2022-12-03T05:50:01.491Z,16.98
2022-12-03T05:52:30.700Z,15.77
2022-12-03T05:54:59.964Z,16.50
2022-12-03T05:57:31.374Z,16.77
2022-12-03T06:00:00.602Z,15.38
2022-12-03T06:02:30.074Z,15.48
2022-12-03T06:04:59.528Z,15.10
2022-12-03T06:07:29.147Z,14.73
2022-12-03T06:09:58.633Z,14.02
2022-12-03T06:12:27.892Z,13.35
2022-12-03T06:14:57.487Z,15.55
2022-12-03T06:17:26.730Z,16.88
2022-12-03T06:19:56.092Z,15.13
2022-12-03T06:22:25.468Z,12.68
2022-12-03T06:24:54.931Z,15.57
2022-12-03T06:27:24.369Z,14.95
2022-12-03T06:29:53.643Z,14.30
2022-12-03T06:32:22.911Z,14.48
2022-12-03T06:34:52.587Z,13.73
2022-12-03T06:37:22.012Z,13.27
2022-12-03T06:39:51.359Z,12.98
2022-12-03T06:42:20.628Z,12.68
2022-12-03T06:44:49.881Z,12.73
2022-12-03T06:47:19.137Z,12.73
2022-12-03T06:49:48.488Z,12.65
2022-12-03T06:52:18.403Z,12.52
2022-12-03T06:54:47.738Z,13.10
2022-12-03T06:57:17.081Z,12.88
2022-12-03T06:59:46.320Z,12.00
2022-12-03T07:02:15.578Z,11.77
2022-12-03T07:04:46.617Z,12.25
2022-12-03T07:07:16.144Z,13.20
2022-12-03T07:09:45.510Z,13.07
2022-12-03T07:12:14.848Z,13.30
2022-12-03T07:14:44.111Z,13.80
2022-12-03T07:17:13.387Z,12.48
2022-12-03T07:19:42.618Z,12.90
2022-12-03T07:22:11.873Z,11.48
2022-12-03T07:24:41.155Z,13.52
2022-12-03T07:27:10.439Z,14.38
2022-12-03T07:29:39.711Z,13.23
2022-12-03T07:32:08.975Z,11.68
2022-12-03T07:34:38.226Z,13.15
2022-12-03T07:37:07.574Z,12.13
2022-12-03T07:39:36.854Z,12.45
2022-12-03T07:42:06.282Z,14.48
2022-12-03T07:44:35.516Z,14.18
2022-12-03T07:47:04.830Z,13.35
2022-12-03T07:49:34.197Z,13.15
2022-12-03T07:52:03.453Z,13.80
2022-12-03T07:54:32.734Z,15.07
2022-12-03T07:57:02.163Z,14.10
2022-12-03T07:59:32.008Z,12.60
2022-12-03T08:02:02.408Z,15.02
2022-12-03T08:04:31.809Z,13.50
2022-12-03T08:07:01.116Z,13.13
2022-12-03T08:09:31.496Z,13.52
2022-12-03T08:12:03.271Z,13.93
2022-12-03T08:14:32.628Z,14.55
2022-12-03T08:17:02.037Z,16.42
2022-12-03T08:19:31.316Z,14.55
2022-12-03T08:22:02.040Z,15.55
2022-12-03T08:24:33.098Z,14.55
2022-12-03T08:27:02.365Z,14.15
2022-12-03T08:29:33.944Z,13.13
2022-12-03T08:32:03.341Z,13.50
2022-12-03T08:34:35.062Z,13.65
2022-12-03T08:37:08.923Z,12.13
2022-12-03T08:39:39.852Z,12.52
2022-12-03T08:42:24.592Z,13.05
2022-12-03T08:44:55.620Z,11.75
2022-12-03T08:47:26.317Z,11.25
2022-12-03T08:50:09.692Z,12.43
2022-12-03T08:52:38.947Z,14.13
2022-12-03T08:55:34.145Z,13.90
2022-12-03T08:58:03.431Z,13.55
2022-12-03T09:00:32.765Z,14.77
2022-12-03T09:03:02.644Z,14.38
2022-12-03T09:05:35.001Z,14.63
2022-12-03T09:08:04.302Z,13.93
2022-12-03T09:10:33.685Z,12.05
2022-12-03T09:13:03.050Z,13.98
2022-12-03T09:15:35.530Z,14.38
2022-12-03T09:18:04.882Z,13.35
2022-12-03T09:20:34.166Z,12.70
2022-12-03T09:23:03.472Z,11.93
2022-12-03T09:25:32.698Z,10.95
2022-12-03T09:28:02.117Z,12.93
2022-12-03T09:30:31.407Z,11.60
2022-12-03T09:33:00.778Z,10.88
2022-12-03T09:35:30.464Z,10.43
2022-12-03T09:37:59.851Z,8.25
2022-12-03T09:40:29.155Z,8.15
2022-12-03T09:42:59.134Z,8.10
2022-12-03T09:45:28.453Z,8.50
2022-12-03T09:47:57.834Z,8.70
2022-12-03T09:50:28.880Z,7.68
2022-12-03T09:52:59.662Z,7.68
2022-12-03T09:55:30.082Z,8.75
2022-12-03T09:58:00.770Z,7.57
2022-12-03T10:00:31.768Z,8.05
2022-12-03T10:03:04.113Z,9.65
2022-12-03T10:05:33.516Z,8.40
2022-12-03T10:08:08.135Z,9.38
2022-12-03T10:10:38.228Z,8.35
2022-12-03T10:13:07.860Z,7.65
2022-12-03T10:15:37.260Z,10.27
2022-12-03T10:18:28.658Z,9.57
2022-12-03T10:21:00.125Z,9.55
2022-12-03T10:23:30.767Z,8.70
2022-12-03T10:26:04.169Z,8.88
2022-12-03T10:28:35.104Z,8.07
2022-12-03T10:31:05.547Z,9.15
2022-12-03T10:33:43.205Z,9.25
2022-12-03T10:36:26.882Z,8.75
2022-12-03T10:39:08.447Z,9.82
2022-12-03T10:41:38.502Z,10.15
2022-12-03T10:44:15.630Z,10.75
2022-12-03T10:46:45.708Z,9.73
2022-12-03T10:49:19.825Z,10.20
2022-12-03T10:51:51.814Z,10.75
2022-12-03T10:54:23.735Z,10.00
2022-12-03T10:56:54.095Z,10.32
2022-12-03T10:59:32.559Z,9.80
2022-12-03T11:02:01.888Z,9.90
2022-12-03T11:04:34.469Z,10.25
2022-12-03T11:07:14.590Z,10.40
2022-12-03T11:09:46.070Z,10.60
2022-12-03T11:12:34.741Z,9.40
2022-12-03T11:15:08.106Z,10.23
2022-12-03T11:17:44.829Z,10.80
2022-12-03T11:20:26.275Z,12.13
2022-12-03T11:22:56.933Z,10.55
2022-12-03T11:25:29.407Z,12.75
2022-12-03T11:30:46.819Z,12.20
2022-12-03T11:33:25.267Z,11.32
2022-12-03T11:36:06.801Z,12.30
2022-12-03T11:38:52.823Z,10.73
2022-12-03T11:41:24.500Z,12.32
2022-12-03T11:43:56.530Z,11.20
2022-12-03T11:46:27.109Z,10.55
2022-12-03T11:48:57.626Z,11.18
2022-12-03T11:51:27.870Z,10.88
2022-12-03T11:53:58.832Z,13.50
2022-12-03T11:56:32.157Z,11.95
2022-12-03T11:59:02.615Z,11.02
2022-12-03T12:01:39.411Z,11.88
2022-12-03T12:04:09.431Z,12.00
2022-12-03T12:06:43.080Z,11.15
2022-12-03T12:09:12.694Z,11.63
2022-12-03T12:11:43.882Z,12.18
2022-12-03T12:14:18.094Z,11.63
2022-12-03T12:16:55.380Z,13.25
2022-12-03T12:19:44.025Z,12.38
2022-12-03T12:22:16.348Z,12.48
2022-12-03T12:24:46.921Z,12.60
2022-12-03T12:27:19.079Z,12.93
2022-12-03T12:30:11.108Z,11.80
2022-12-03T12:32:48.638Z,12.98
2022-12-03T12:35:19.905Z,12.13
2022-12-03T12:37:56.831Z,13.13
2022-12-03T12:40:30.063Z,11.82
2022-12-03T12:43:03.200Z,13.07
2022-12-03T12:45:38.537Z,13.73
2022-12-03T12:48:16.945Z,12.98
2022-12-03T12:50:47.586Z,12.57
2022-12-03T12:53:23.827Z,12.82
2022-12-03T12:56:00.893Z,11.98
2022-12-03T12:58:32.963Z,13.48
2022-12-03T13:01:04.142Z,13.82
2022-12-03T13:03:36.305Z,12.82
2022-12-03T13:06:05.766Z,14.60
2022-12-03T13:08:36.788Z,13.25
2022-12-03T13:11:06.176Z,15.02
2022-12-03T13:13:44.012Z,13.57
2022-12-03T13:16:13.789Z,12.80
2022-12-03T13:18:45.770Z,13.73
2022-12-03T13:21:29.980Z,12.50
2022-12-03T13:23:59.959Z,14.57
2022-12-03T13:26:39.115Z,13.98
2022-12-03T13:29:18.668Z,14.32
2022-12-03T13:32:02.243Z,15.38
2022-12-03T13:34:34.846Z,14.25
2022-12-03T13:37:04.553Z,13.65
2022-12-03T13:39:35.443Z,13.40
2022-12-03T13:42:27.993Z,15.05
2022-12-03T13:44:57.301Z,14.85
2022-12-03T13:47:26.583Z,14.38
2022-12-03T13:50:03.622Z,15.15
2022-12-03T13:52:34.311Z,14.25
2022-12-03T13:55:05.448Z,13.90
2022-12-03T13:57:34.746Z,13.73
2022-12-03T14:00:04.210Z,14.07
2022-12-03T14:02:41.796Z,13.60
2022-12-03T14:05:11.138Z,14.02
2022-12-03T14:07:40.865Z,13.90
2022-12-03T14:10:11.165Z,12.30
2022-12-03T14:12:37.855Z,14.57
2022-12-03T14:15:09.133Z,13.13
2022-12-03T14:17:38.460Z,14.80
2022-12-03T14:20:08.196Z,13.93
2022-12-03T14:22:39.150Z,14.95
2022-12-03T14:25:09.348Z,12.93
2022-12-03T14:27:38.968Z,14.45
2022-12-03T14:30:08.834Z,13.25
2022-12-03T14:32:38.409Z,12.10
2022-12-03T14:35:10.031Z,15.20
2022-12-03T14:37:39.810Z,15.25
2022-12-03T14:40:09.948Z,12.52
2022-12-03T14:42:39.593Z,12.45
2022-12-03T14:45:09.445Z,14.50
2022-12-03T14:47:39.152Z,14.00
2022-12-03T14:50:13.688Z,13.73
2022-12-03T14:52:43.505Z,13.93
2022-12-03T14:55:12.873Z,15.40
2022-12-03T14:57:42.261Z,14.10
2022-12-03T15:00:12.293Z,13.75
2022-12-03T15:02:42.240Z,13.48
2022-12-03T15:05:12.053Z,14.38
2022-12-03T15:07:41.756Z,15.10
2022-12-03T15:10:11.434Z,14.60
2022-12-03T15:12:40.849Z,13.25
2022-12-03T15:15:10.576Z,13.63
2022-12-03T15:17:40.020Z,14.50
2022-12-03T15:20:09.839Z,14.45
2022-12-03T15:22:39.275Z,14.85
2022-12-03T15:25:08.933Z,14.35
2022-12-03T15:27:38.721Z,13.95
2022-12-03T15:30:08.572Z,14.40
2022-12-03T15:32:37.924Z,13.48
2022-12-03T15:35:08.371Z,15.43
2022-12-03T15:37:37.778Z,15.30
2022-12-03T15:40:07.986Z,14.35
2022-12-03T15:42:37.523Z,14.50
2022-12-03T15:45:11.958Z,15.35
2022-12-03T15:47:44.315Z,14.27
2022-12-03T15:50:16.291Z,13.77
2022-12-03T15:52:45.703Z,14.35
2022-12-03T15:55:15.102Z,14.15
2022-12-03T15:57:44.618Z,13.88
2022-12-03T16:00:15.486Z,13.23
2022-12-03T16:02:52.219Z,15.02
2022-12-03T16:05:22.333Z,16.42
2022-12-03T16:07:51.729Z,15.27
2022-12-03T16:10:21.661Z,14.18
2022-12-03T16:12:51.482Z,14.45
2022-12-03T16:15:26.757Z,13.98
2022-12-03T16:17:56.784Z,15.55
2022-12-03T16:20:26.182Z,16.30
2022-12-03T16:22:55.720Z,15.32
2022-12-03T16:25:25.350Z,14.60
2022-12-03T16:27:54.824Z,15.07
2022-12-03T16:30:24.855Z,14.25
2022-12-03T16:32:54.336Z,15.68
2022-12-03T16:35:23.633Z,15.98
2022-12-03T16:37:52.864Z,15.63
2022-12-03T16:40:37.185Z,16.98
2022-12-03T16:43:08.434Z,14.57
2022-12-03T16:46:02.574Z,16.35
2022-12-03T16:48:32.476Z,15.32
2022-12-03T16:51:01.738Z,15.45
2022-12-03T16:53:30.986Z,16.50
2022-12-03T16:56:02.673Z,14.93
2022-12-03T16:58:32.777Z,14.98
2022-12-03T17:01:02.058Z,18.58
2022-12-03T17:03:34.067Z,16.83
2022-12-03T17:06:04.175Z,15.63
2022-12-03T17:08:34.013Z,18.75
2022-12-03T17:11:04.653Z,15.13
2022-12-03T17:13:33.999Z,15.75
2022-12-03T17:16:03.750Z,16.38
2022-12-03T17:18:33.047Z,16.58
2022-12-03T17:21:02.372Z,14.82
2022-12-03T17:23:31.663Z,14.85
2022-12-03T17:26:01.093Z,14.75
2022-12-03T17:28:30.411Z,16.02
2022-12-03T17:30:59.762Z,15.68
2022-12-03T17:33:29.096Z,15.10
2022-12-03T17:35:58.336Z,14.20
2022-12-03T17:38:27.645Z,15.52
2022-12-03T17:40:56.967Z,15.55
2022-12-03T17:43:26.310Z,17.48
2022-12-03T17:45:56.466Z,16.50
2022-12-03T17:48:25.748Z,15.43
2022-12-03T17:50:55.445Z,14.55
2022-12-03T17:53:24.744Z,16.30
2022-12-03T17:55:54.201Z,17.50
2022-12-03T17:58:23.474Z,15.35
2022-12-03T18:00:56.010Z,17.92
2022-12-03T18:03:29.750Z,17.60
2022-12-03T18:05:59.037Z,19.75
2022-12-03T18:08:28.367Z,16.60
2022-12-03T18:10:57.785Z,18.40
2022-12-03T18:13:27.057Z,16.80
2022-12-03T18:15:56.449Z,18.17
2022-12-03T18:18:25.805Z,16.23
2022-12-03T18:20:55.896Z,21.77
2022-12-03T18:23:25.453Z,17.27
2022-12-03T18:25:56.092Z,17.42
2022-12-03T18:28:25.751Z,17.90
2022-12-03T18:30:55.056Z,16.85
2022-12-03T18:33:24.569Z,20.35
2022-12-03T18:35:55.438Z,20.00
2022-12-03T18:38:25.521Z,18.95
2022-12-03T18:40:56.110Z,19.75
2022-12-03T18:43:25.369Z,17.75
2022-12-03T18:45:54.676Z,18.75
2022-12-03T18:48:24.025Z,17.77
2022-12-03T18:50:53.536Z,18.67
2022-12-03T18:53:24.001Z,19.00
2022-12-03T18:55:53.661Z,17.92
2022-12-03T18:58:23.033Z,17.55
2022-12-03T19:00:52.315Z,19.77
2022-12-03T19:03:21.802Z,18.60
2022-12-03T19:05:51.118Z,18.90
2022-12-03T19:08:20.386Z,18.42
2022-12-03T19:10:57.373Z,18.38
2022-12-03T19:13:29.484Z,18.60
2022-12-03T19:15:58.894Z,20.33
2022-12-03T19:18:28.238Z,17.90
2022-12-03T19:20:57.592Z,20.02
2022-12-03T19:23:26.943Z,19.25
2022-12-03T19:26:03.467Z,19.00
2022-12-03T19:28:32.826Z,18.50
2022-12-03T19:31:03.224Z,18.15
2022-12-03T19:33:33.005Z,19.38
2022-12-03T19:36:02.767Z,19.08
2022-12-03T19:38:32.474Z,19.05
2022-12-03T19:41:04.811Z,20.10
2022-12-03T19:46:07.669Z,18.40
2022-12-03T19:48:37.524Z,18.60
2022-12-03T19:51:33.043Z,19.42
2022-12-03T19:53:57.428Z,17.00
2022-12-03T19:56:26.726Z,19.70
2022-12-03T19:58:57.646Z,19.63
2022-12-03T20:01:28.295Z,19.52
2022-12-03T20:03:58.540Z,20.75
2022-12-03T20:06:30.440Z,17.15
2022-12-03T20:09:00.843Z,18.38
2022-12-03T20:11:32.198Z,16.30
2022-12-03T20:14:02.544Z,18.63
2022-12-03T20:16:32.246Z,19.13
2022-12-03T20:19:03.048Z,20.30
2022-12-03T20:21:33.466Z,19.08
2022-12-03T20:24:03.223Z,17.08
2022-12-03T20:26:32.673Z,18.63
2022-12-03T20:29:02.003Z,19.70
2022-12-03T20:31:32.520Z,19.90
2022-12-03T20:34:03.331Z,18.85
2022-12-03T20:36:33.614Z,20.75
2022-12-03T20:39:04.982Z,19.77
2022-12-03T20:41:37.009Z,19.25
2022-12-03T20:44:07.696Z,19.60
2022-12-03T20:46:37.200Z,18.23
2022-12-03T20:49:07.327Z,19.20
2022-12-03T20:51:36.819Z,19.60
2022-12-03T20:54:06.189Z,20.50
2022-12-03T20:56:36.645Z,19.88
2022-12-03T20:59:07.587Z,17.52
2022-12-03T21:01:41.276Z,19.10
2022-12-03T21:04:11.029Z,20.50
2022-12-03T21:06:42.357Z,20.58
2022-12-03T21:09:12.347Z,21.67
2022-12-03T21:11:42.752Z,19.17
2022-12-03T21:14:12.891Z,20.92
2022-12-03T21:17:07.406Z,20.60
2022-12-03T21:19:35.895Z,19.95
2022-12-03T21:22:05.341Z,18.58
2022-12-03T21:24:34.688Z,18.88
2022-12-03T21:27:04.012Z,18.20
2022-12-03T21:29:33.295Z,18.67
2022-12-03T21:32:02.671Z,18.80
2022-12-03T21:34:36.179Z,15.77
2022-12-03T21:37:06.072Z,17.58
2022-12-03T21:39:35.501Z,18.13
2022-12-03T21:42:19.265Z,17.27
2022-12-03T21:44:54.170Z,19.50
2022-12-03T21:47:23.551Z,20.48
2022-12-03T21:49:53.163Z,20.05
2022-12-03T21:52:22.610Z,20.45
2022-12-03T21:54:54.704Z,19.13
2022-12-03T21:57:24.261Z,18.85
2022-12-03T21:59:53.864Z,17.90
2022-12-03T22:02:23.472Z,20.17
2022-12-03T22:04:52.928Z,19.52
2022-12-03T22:07:22.462Z,19.30
2022-12-03T22:09:51.942Z,19.40
2022-12-03T22:12:21.671Z,21.05
2022-12-03T22:14:51.128Z,21.15
2022-12-03T22:17:20.552Z,17.92
2022-12-03T22:19:49.968Z,18.55
2022-12-03T22:22:19.315Z,19.95
2022-12-03T22:24:48.816Z,19.75
2022-12-03T22:27:18.223Z,18.30
2022-12-03T22:29:47.553Z,17.77
2022-12-03T22:32:16.952Z,17.60
2022-12-03T22:34:46.411Z,18.75
2022-12-03T22:37:15.768Z,18.90
2022-12-03T22:39:45.492Z,19.30
2022-12-03T22:42:14.862Z,17.38
2022-12-03T22:44:44.162Z,17.65
2022-12-03T22:47:13.521Z,20.48
2022-12-03T22:49:43.025Z,19.48
2022-12-03T22:52:12.326Z,17.00
2022-12-03T22:54:42.154Z,16.98
2022-12-03T22:57:11.468Z,21.08
2022-12-03T22:59:40.777Z,17.63
2022-12-03T23:02:10.304Z,17.90
2022-12-03T23:04:39.756Z,19.00
2022-12-03T23:07:09.288Z,18.73
2022-12-03T23:09:38.726Z,19.60
2022-12-03T23:12:08.108Z,19.02
2022-12-03T23:14:37.621Z,21.58
2022-12-03T23:17:07.085Z,17.45
2022-12-03T23:19:36.568Z,17.80
2022-12-03T23:22:05.954Z,19.13
2022-12-03T23:24:35.421Z,18.30
2022-12-03T23:27:04.828Z,18.23
2022-12-03T23:29:37.071Z,19.10
2022-12-03T23:32:06.594Z,19.23
2022-12-03T23:34:36.255Z,17.90
2022-12-03T23:37:05.752Z,18.02
2022-12-03T23:39:35.164Z,18.35
2022-12-03T23:42:04.575Z,17.65
2022-12-03T23:44:34.055Z,18.83
2022-12-03T23:47:03.613Z,19.95
2022-12-03T23:49:33.104Z,18.55
2022-12-03T23:52:02.586Z,19.85
2022-12-03T23:54:32.116Z,21.50
2022-12-03T23:57:01.577Z,18.15
2022-12-03T23:59:31.052Z,17.25
